Time;durP1;ratioP1;P1;durP2;ratioP2;P2;SDS_P1;SDS_P2;PMS_P1;PMS_P2;Temp;Humidity;BMP_temperature;BMP_pressure;BME280_temperature;BME280_humidity;BME280_pressure;Samples;Min_cycle;Max_cycle;Signal;HPM_P1;HPM_P2
2024/03/08 00:02:54;;;;;;;14.98;12.63;;;;;;;1.68;78.44;149090.06;10625053;27;20088;-70
2024/03/08 00:07:55;;;;;;;14.70;13.02;;;;;;;1.72;79.08;149101.59;10625033;27;20071;-70
2024/03/08 00:12:57;;;;;;;17.33;14.27;;;;;;;1.63;79.06;149078.50;10625618;27;20092;-70
2024/03/08 00:17:59;;;;;;;17.30;14.32;;;;;;;1.21;81.15;148973.44;10624424;27;20407;-70
2024/03/08 00:23:01;;;;;;;22.63;14.93;;;;;;;1.03;82.47;148927.31;10624866;27;20035;-69
2024/03/08 00:28:04;;;;;;;13.38;11.63;;;;;;;0.85;83.51;148882.47;10624810;27;20074;-69
2024/03/08 00:33:06;;;;;;;22.38;14.30;;;;;;;0.85;84.10;148882.47;10606133;27;20096;-70
2024/03/08 00:38:08;;;;;;;24.25;16.38;;;;;;;0.93;83.80;148902.97;10625448;27;20035;-69
2024/03/08 00:43:10;;;;;;;21.27;15.60;;;;;;;0.88;83.52;148890.13;10605501;27;20039;-69
2024/03/08 00:48:12;;;;;;;19.23;13.07;;;;;;;0.60;85.00;148818.41;10624283;28;20448;-70
2024/03/08 00:53:13;;;;;;;20.25;14.75;;;;;;;0.32;87.19;148748.00;10623779;28;20055;-70
2024/03/08 00:58:15;;;;;;;19.73;14.32;;;;;;;0.58;86.47;148813.31;10624167;28;20039;-70
2024/03/08 01:03:17;;;;;;;17.10;14.25;;;;;;;0.52;86.56;148799.19;10623992;28;20062;-70
2024/03/08 01:08:19;;;;;;;18.90;15.23;;;;;;;0.25;88.29;148732.59;10623596;28;20402;-70
2024/03/08 01:13:21;;;;;;;17.45;13.52;;;;;;;0.12;89.25;148699.31;10623969;28;20056;-70
2024/03/08 01:18:23;;;;;;;15.55;13.05;;;;;;;-0.11;90.84;148641.72;10623228;28;20054;-69
2024/03/08 01:23:24;;;;;;;19.85;15.27;;;;;;;0.04;90.36;148678.81;10623987;28;20088;-69
2024/03/08 01:28:26;;;;;;;21.95;15.75;;;;;;;-0.21;91.58;148616.13;10623038;28;20063;-70
2024/03/08 01:33:28;;;;;;;20.73;14.10;;;;;;;-0.24;92.64;148607.16;10623596;28;20134;-70
2024/03/08 01:38:30;;;;;;;22.88;15.77;;;;;;;-0.14;92.13;148632.75;10604774;28;20108;-69
2024/03/08 01:43:32;;;;;;;20.77;15.15;;;;;;;-0.37;92.57;148575.16;10623928;28;20047;-71
2024/03/08 01:48:34;;;;;;;15.43;13.82;;;;;;;-0.49;94.19;148545.72;10622649;28;20039;-69
2024/03/08 01:53:36;;;;;;;20.63;14.98;;;;;;;-0.40;93.87;148568.78;10622590;28;20453;-69
2024/03/08 01:58:39;;;;;;;23.30;15.98;;;;;;;-0.53;95.21;148535.50;10627880;27;20385;-69
2024/03/08 02:03:43;;;;;;;17.73;14.80;;;;;;;-0.20;92.48;148617.41;10630027;27;20039;-70
2024/03/08 02:08:46;;;;;;;19.23;15.35;;;;;;;-0.51;94.51;148541.88;10594440;27;20442;-69
2024/03/08 02:13:48;;;;;;;21.42;15.02;;;;;;;-0.52;94.36;148539.34;10629444;27;20160;-71
2024/03/08 02:18:50;;;;;;;23.45;14.55;;;;;;;-0.68;95.42;148497.09;10629330;27;20039;-71
2024/03/08 02:23:52;;;;;;;18.08;15.65;;;;;;;-0.74;96.44;148483.03;10629138;27;20552;-71
2024/03/08 02:28:54;;;;;;;29.42;15.85;;;;;;;-0.86;96.22;148452.34;10629119;27;20036;-71
2024/03/08 02:33:56;;;;;;;23.52;15.85;;;;;;;-0.78;97.15;148472.81;10629744;27;20092;-71
2024/03/08 02:38:58;;;;;;;19.85;15.07;;;;;;;-0.84;97.48;148458.75;10628734;27;20117;-71
2024/03/08 02:44:00;;;;;;;20.63;14.98;;;;;;;-0.85;97.64;148454.88;10628428;27;20039;-70
2024/03/08 02:49:02;;;;;;;22.23;16.13;;;;;;;-0.92;98.33;148437.00;10611793;27;20035;-70
2024/03/08 02:54:04;;;;;;;19.27;13.73;;;;;;;-1.01;98.34;148415.25;10628147;27;20047;-70
2024/03/08 02:59:06;;;;;;;21.15;15.65;;;;;;;-1.10;98.65;148392.22;10628232;27;20043;-70
2024/03/08 03:04:07;;;;;;;23.05;16.25;;;;;;;-0.99;98.48;148419.06;10627574;27;20092;-70
2024/03/08 03:09:10;;;;;;;19.85;14.07;;;;;;;-1.14;98.54;148383.28;10626901;27;20043;-70
2024/03/08 03:14:12;;;;;;;24.67;15.73;;;;;;;-1.24;98.39;148356.38;10608886;27;20100;-70
2024/03/08 03:19:15;;;;;;;20.33;15.00;;;;;;;-1.09;98.95;148396.06;10627261;27;20078;-70
2024/03/08 03:24:17;;;;;;;23.17;15.05;;;;;;;-1.16;99.11;148376.84;10627390;27;20051;-70
2024/03/08 03:29:20;;;;;;;20.55;14.95;;;;;;;-1.13;99.18;148384.53;10627318;27;20043;-70
2024/03/08 03:34:22;;;;;;;26.48;14.02;;;;;;;-1.03;99.59;148410.09;10626807;27;20126;-70
2024/03/08 03:39:24;;;;;;;17.75;14.80;;;;;;;-1.05;99.19;148406.28;10626547;27;20047;-70
2024/03/08 03:44:26;;;;;;;26.73;17.05;;;;;;;-1.00;99.39;148417.78;10626172;27;20039;-70
2024/03/08 03:49:29;;;;;;;20.77;16.10;;;;;;;-1.21;100.00;148365.34;10625916;27;20073;-70
2024/03/08 03:54:30;;;;;;;29.85;16.63;;;;;;;-1.31;100.00;148339.78;10625581;27;20451;-70
2024/03/08 03:59:32;;;;;;;23.38;16.30;;;;;;;-1.37;100.00;148325.72;10625326;27;20491;-69
2024/03/08 04:04:34;;;;;;;20.75;15.38;;;;;;;-1.31;100.00;148341.06;10625006;27;20074;-70
2024/03/08 04:09:36;;;;;;;23.60;16.58;;;;;;;-1.52;100.00;148287.34;10624774;27;20122;-70
2024/03/08 04:14:42;;;;;;;21.98;16.55;;;;;;;-1.45;100.00;148305.28;10606805;27;20071;-70
2024/03/08 04:19:44;;;;;;;21.92;16.65;;;;;;;-1.27;100.00;148350.03;10623675;27;20043;-70
2024/03/08 04:24:46;;;;;;;20.27;15.02;;;;;;;-1.40;100.00;148318.06;10624673;27;20071;-70
2024/03/08 04:29:47;;;;;;;23.10;17.20;;;;;;;-1.50;100.00;148291.22;10624538;27;20039;-70
2024/03/08 04:34:49;;;;;;;18.13;14.07;;;;;;;-1.49;100.00;148293.75;10624680;27;20049;-70
2024/03/08 04:39:51;;;;;;;24.75;16.33;;;;;;;-1.47;100.00;148298.84;10624515;27;20039;-70
2024/03/08 04:44:53;;;;;;;25.73;17.05;;;;;;;-1.49;100.00;148293.75;10624058;27;20127;-70
2024/03/08 04:49:56;;;;;;;20.27;15.55;;;;;;;-1.54;100.00;148283.53;10624636;28;20043;-70
2024/03/08 04:54:58;;;;;;;23.40;15.50;;;;;;;-1.42;100.00;148311.63;10625793;28;20047;-70
2024/03/08 05:00:01;;;;;;;28.48;17.55;;;;;;;-1.31;100.00;148341.06;10625865;28;20110;-70
2024/03/08 05:05:06;;;;;;;24.77;16.05;;;;;;;-1.46;100.00;148301.41;10624482;28;20054;-70
2024/03/08 05:10:08;;;;;;;22.17;16.58;;;;;;;-1.45;100.00;148304.00;10624332;28;20043;-70
2024/03/08 05:15:10;;;;;;;34.40;18.10;;;;;;;-1.71;100.00;148238.78;10624890;28;20499;-70
2024/03/08 05:20:13;;;;;;;29.98;17.77;;;;;;;-1.55;100.00;148281.00;10623994;28;20039;-70
2024/03/08 05:25:15;;;;;;;21.73;16.95;;;;;;;-1.53;100.00;148286.09;10624557;28;20096;-70
2024/03/08 05:30:17;;;;;;;26.83;18.05;;;;;;;-1.68;100.00;148246.44;10625196;27;20118;-70
2024/03/08 05:35:19;;;;;;;29.73;18.35;;;;;;;-1.63;100.00;148259.25;10613778;27;20118;-69
2024/03/08 05:40:20;;;;;;;35.65;18.08;;;;;;;-1.59;100.00;148269.47;10613958;27;20392;-70
2024/03/08 05:45:25;;;;;;;25.55;16.92;;;;;;;-1.39;100.00;148320.59;10632083;27;20043;-70
2024/03/08 05:50:27;;;;;;;31.10;17.27;;;;;;;-1.73;100.00;148233.66;10632039;27;20410;-70
2024/03/08 05:55:29;;;;;;;21.67;16.38;;;;;;;-1.78;100.00;148223.44;10632114;27;20043;-70
2024/03/08 06:00:31;;;;;;;28.40;17.48;;;;;;;-1.64;100.00;148256.66;10632964;27;20039;-70
2024/03/08 06:05:33;;;;;;;29.00;16.48;;;;;;;-1.57;100.00;148274.56;10630670;27;20491;-71
2024/03/08 06:10:35;;;;;;;28.05;18.10;;;;;;;-1.40;100.00;148318.06;10612055;27;20047;-71
2024/03/08 06:15:37;;;;;;;34.85;20.13;;;;;;;-0.89;100.00;148444.63;10630506;27;20046;-71
2024/03/08 06:20:43;;;;;;;29.45;17.80;;;;;;;0.16;100.00;148708.28;10612463;27;20039;-70
2024/03/08 06:25:45;;;;;;;28.33;17.77;;;;;;;0.66;99.33;148833.78;10631383;27;20071;-70
2024/03/08 06:30:47;;;;;;;26.85;15.68;;;;;;;1.12;96.17;148949.09;10629908;27;20067;-71
2024/03/08 06:35:49;;;;;;;23.13;15.95;;;;;;;1.90;90.40;149146.47;10628299;27;20043;-69
2024/03/08 06:40:52;;;;;;;21.25;15.40;;;;;;;2.00;86.38;149170.88;10628371;27;20045;-70
2024/03/08 06:45:53;;;;;;;17.70;15.18;;;;;;;1.63;84.02;149078.50;10627994;27;20039;-70
2024/03/08 06:50:56;;;;;;;18.95;14.57;;;;;;;1.69;87.61;149093.94;10629386;27;20521;-69
2024/03/08 06:55:58;;;;;;;16.88;14.80;;;;;;;1.95;83.87;149158.06;10629130;27;20078;-69
2024/03/08 07:01:03;;;;;;;22.60;17.63;;;;;;;2.20;82.01;149222.13;10653388;27;20114;-69
2024/03/08 07:06:07;;;;;;;22.92;15.75;;;;;;;2.07;80.60;149188.78;10668115;27;20035;-71
2024/03/08 07:11:09;;;;;;;23.67;16.80;;;;;;;1.35;85.48;149006.75;10608842;27;20057;-70
2024/03/08 07:16:11;;;;;;;21.80;16.15;;;;;;;1.20;87.18;148970.88;10627610;27;20054;-70
2024/03/08 07:21:13;;;;;;;25.13;16.35;;;;;;;1.83;84.21;149127.28;10627602;27;20092;-70
2024/03/08 07:26:16;;;;;;;28.17;17.52;;;;;;;1.65;85.90;149083.66;10608968;27;20043;-70
2024/03/08 07:31:44;;;;;;;27.17;17.38;;;;;;;1.66;85.82;149086.22;10628475;27;20104;-70
2024/03/08 07:36:46;;;;;;;17.40;15.48;;;;;;;1.89;84.79;149143.91;10608739;27;20074;-71
2024/03/08 07:41:48;;;;;;;23.13;17.38;;;;;;;1.91;85.54;149147.78;10627271;27;20043;-70
2024/03/08 07:46:49;;;;;;;21.88;16.17;;;;;;;2.21;83.21;149224.75;10627061;27;20142;-70
2024/03/08 07:51:54;;;;;;;24.20;16.02;;;;;;;2.11;83.53;149197.78;10626839;27;20039;-70
2024/03/08 07:56:55;;;;;;;27.13;17.73;;;;;;;2.26;83.40;149237.56;10626794;27;20164;-70
2024/03/08 08:01:57;;;;;;;28.92;17.17;;;;;;;2.30;83.22;149245.22;10627339;27;20035;-69
2024/03/08 08:06:59;;;;;;;24.42;16.10;;;;;;;2.66;81.17;149336.34;10593104;27;20537;-71
2024/03/08 08:12:04;;;;;;;23.17;15.82;;;;;;;2.67;81.84;149340.16;10610061;27;20057;-69
2024/03/08 08:17:08;;;;;;;20.73;16.15;;;;;;;3.15;77.93;149460.81;10610283;27;20076;-70
2024/03/08 08:22:11;;;;;;;19.90;16.27;;;;;;;3.35;77.21;149509.56;10608367;27;20110;-70
2024/03/08 08:27:14;;;;;;;22.42;15.90;;;;;;;3.51;77.29;149550.69;10626313;27;20039;-69
2024/03/08 08:32:18;;;;;;;25.40;16.00;;;;;;;3.83;74.89;149631.56;10625527;27;20088;-69
2024/03/08 08:37:20;;;;;;;26.42;15.95;;;;;;;3.89;74.21;149646.97;10639468;27;20063;-69
2024/03/08 08:42:24;;;;;;;20.95;14.88;;;;;;;4.03;73.90;149682.97;10666928;27;20095;-69
2024/03/08 08:47:26;;;;;;;20.63;14.75;;;;;;;4.40;72.57;149774.16;10632657;27;20054;-70
2024/03/08 08:52:29;;;;;;;21.38;15.43;;;;;;;4.50;71.45;149799.84;10584113;28;20089;-70
2024/03/08 08:57:32;;;;;;;16.58;14.80;;;;;;;4.70;71.06;149850.00;10609102;27;20045;-70
2024/03/08 09:02:34;;;;;;;18.05;14.50;;;;;;;5.21;70.07;149979.78;10667921;27;20038;-70
2024/03/08 09:07:37;;;;;;;19.42;14.50;;;;;;;5.31;69.00;150004.22;10673571;27;20091;-70
2024/03/08 09:12:39;;;;;;;17.83;14.95;;;;;;;5.29;67.50;149999.09;10676370;27;20508;-70
2024/03/08 09:17:41;;;;;;;21.13;14.40;;;;;;;5.73;66.73;150109.69;10617409;27;20130;-70
2024/03/08 09:22:44;;;;;;;20.83;14.38;;;;;;;5.66;67.65;150091.66;10632842;27;20043;-70
2024/03/08 09:27:46;;;;;;;18.58;14.20;;;;;;;5.62;66.92;150082.66;10632294;27;20035;-69
2024/03/08 09:32:51;;;;;;;15.93;14.38;;;;;;;6.12;65.19;150207.53;10614229;27;20065;-69
2024/03/08 09:37:53;;;;;;;19.30;13.75;;;;;;;6.43;64.27;150287.31;10636153;27;20039;-69
2024/03/08 09:42:55;;;;;;;13.68;12.25;;;;;;;6.68;62.95;150349.06;10646984;27;20063;-69
2024/03/08 09:47:57;;;;;;;17.00;12.38;;;;;;;6.89;62.25;150403.16;10635111;27;20495;-69
2024/03/08 09:52:59;;;;;;;16.38;13.55;;;;;;;7.15;60.09;150468.81;10613175;27;20039;-70
2024/03/08 10:03:34;;;;;;;17.15;12.63;;;;;;;7.37;58.66;150524.19;10575843;27;20062;-69
2024/03/08 10:08:36;;;;;;;14.75;12.75;;;;;;;7.34;59.23;150516.44;10630972;27;20039;-69
2024/03/08 10:13:40;;;;;;;12.85;11.52;;;;;;;7.67;58.01;150600.22;10630712;27;20047;-69
2024/03/08 10:18:42;;;;;;;15.10;13.55;;;;;;;8.03;57.00;150691.69;10629377;27;20043;-69
2024/03/08 10:23:44;;;;;;;13.65;11.82;;;;;;;7.98;57.73;150678.81;10629808;27;20043;-69
2024/03/08 10:28:50;;;;;;;14.57;11.40;;;;;;;8.30;55.96;150758.69;10612326;27;20043;-69
2024/03/08 10:33:52;;;;;;;17.77;11.70;;;;;;;8.78;56.06;150879.94;10631122;27;20043;-70
2024/03/08 10:39:00;;;;;;;12.95;11.65;;;;;;;9.38;52.59;151030.81;10611925;27;20088;-70
2024/03/08 10:44:30;;;;;;;13.75;11.50;;;;;;;9.59;51.81;151085.00;10629854;27;20092;-70
2024/03/08 10:49:38;;;;;;;14.45;12.95;;;;;;;9.59;52.14;151085.00;10630530;27;20122;-71
2024/03/08 10:54:43;;;;;;;11.80;10.52;;;;;;;9.36;53.79;151026.94;10629464;27;20110;-70
2024/03/08 10:59:49;;;;;;;14.18;12.05;;;;;;;9.89;51.99;151161.13;10630078;27;20046;-70
2024/03/08 11:04:52;;;;;;;12.18;10.98;;;;;;;10.18;51.33;151234.72;10630394;27;20506;-70
2024/03/08 11:09:56;;;;;;;12.88;11.20;;;;;;;10.15;50.87;151226.97;10629008;27;20039;-71
2024/03/08 11:15:09;;;;;;;13.15;11.82;;;;;;;10.00;50.75;151189.50;10628692;27;20113;-69
2024/03/08 11:20:16;;;;;;;12.38;11.05;;;;;;;9.82;49.67;151144.34;10629174;27;20055;-70
2024/03/08 11:25:30;;;;;;;13.80;12.38;;;;;;;9.83;51.67;151146.94;10628399;27;20043;-70
2024/03/08 11:30:32;;;;;;;12.60;11.30;;;;;;;10.76;49.53;151381.94;10609175;27;20038;-69
2024/03/08 11:35:34;;;;;;;14.05;11.20;;;;;;;10.78;48.92;151385.81;10627265;27;20095;-71
2024/03/08 11:40:36;;;;;;;13.05;10.57;;;;;;;10.41;47.86;151291.56;10627118;27;20046;-69
2024/03/08 11:45:40;;;;;;;11.07;9.93;;;;;;;10.57;47.55;151332.84;10627123;27;20499;-70
2024/03/08 11:50:43;;;;;;;12.00;10.80;;;;;;;10.28;49.80;151260.56;10627212;27;20144;-70
2024/03/08 11:55:45;;;;;;;11.68;9.68;;;;;;;10.22;49.38;151243.72;10626857;27;20047;-70
2024/03/08 12:00:49;;;;;;;12.20;11.00;;;;;;;10.80;47.64;151390.94;10607501;27;20172;-69
2024/03/08 12:05:59;;;;;;;11.60;10.40;;;;;;;10.33;47.90;151273.47;10626024;27;20031;-70
2024/03/08 12:11:03;;;;;;;11.05;9.93;;;;;;;10.66;48.42;151356.09;10625540;27;20118;-71
2024/03/08 12:16:05;;;;;;;11.20;9.07;;;;;;;10.86;48.62;151406.47;10625917;27;20106;-70
2024/03/08 12:21:08;;;;;;;11.82;9.82;;;;;;;10.30;49.18;151265.72;10625156;27;20039;-70
2024/03/08 12:26:14;;;;;;;11.10;8.10;;;;;;;9.92;48.28;151168.91;10626492;27;20547;-70
2024/03/08 12:31:25;;;;;;;11.68;8.27;;;;;;;9.74;49.86;151122.41;10625585;27;20070;-71
2024/03/08 12:36:28;;;;;;;9.15;8.25;;;;;;;9.74;49.17;151123.72;10625803;27;20519;-70
2024/03/08 12:41:30;;;;;;;9.70;7.47;;;;;;;9.66;50.82;151103.09;10624474;27;20039;-69
2024/03/08 12:46:32;;;;;;;8.10;7.30;;;;;;;9.83;49.27;151146.94;10624888;27;20085;-70
2024/03/08 12:51:34;;;;;;;8.40;7.13;;;;;;;9.40;50.17;151036.00;10625526;28;20036;-70
2024/03/08 12:56:37;;;;;;;8.90;8.00;;;;;;;9.42;50.57;151041.13;10625261;28;20441;-70
2024/03/08 13:01:39;;;;;;;9.68;8.65;;;;;;;9.59;50.42;151086.28;10624876;28;20035;-70
2024/03/08 13:06:41;;;;;;;9.38;7.85;;;;;;;9.55;51.27;151074.66;10624713;28;20506;-69
2024/03/08 13:11:43;;;;;;;8.57;7.75;;;;;;;9.64;51.54;151097.88;10624664;28;20122;-69
2024/03/08 13:16:47;;;;;;;9.25;8.25;;;;;;;9.66;51.70;151103.09;10624748;28;20067;-70
2024/03/08 13:21:50;;;;;;;9.07;7.63;;;;;;;9.71;52.82;151114.69;10624048;28;20495;-70
2024/03/08 13:26:52;;;;;;;7.97;7.15;;;;;;;9.82;52.41;151143.06;10623895;28;20035;-70
2024/03/08 13:31:56;;;;;;;8.13;7.32;;;;;;;10.05;52.28;151202.44;10624172;28;20088;-70
2024/03/08 13:37:00;;;;;;;7.93;7.05;;;;;;;9.84;52.50;151148.25;10606580;28;20035;-71
2024/03/08 13:42:05;;;;;;;8.77;7.95;;;;;;;9.95;52.25;151176.59;10606993;28;20046;-70
2024/03/08 13:47:07;;;;;;;7.35;6.50;;;;;;;9.93;52.08;151171.47;10625393;28;20043;-70
2024/03/08 13:52:10;;;;;;;8.55;7.65;;;;;;;9.88;52.65;151157.28;10628246;27;20087;-70
2024/03/08 13:57:11;;;;;;;7.68;6.88;;;;;;;10.00;51.76;151189.50;10631554;27;20108;-71
2024/03/08 14:02:13;;;;;;;8.73;6.78;;;;;;;9.88;52.58;151157.28;10631344;27;20043;-70
2024/03/08 14:07:16;;;;;;;7.45;6.07;;;;;;;10.08;52.50;151210.16;10613307;27;20138;-71
2024/03/08 14:12:18;;;;;;;5.90;5.40;;;;;;;10.07;52.45;151206.31;10631734;27;20061;-69
2024/03/08 14:17:23;;;;;;;7.82;7.03;;;;;;;10.30;51.21;151264.44;10630734;27;20035;-70
2024/03/08 14:22:25;;;;;;;6.72;6.13;;;;;;;10.18;52.55;151233.41;10630279;27;20039;-69
2024/03/08 14:27:28;;;;;;;8.05;6.60;;;;;;;10.06;52.38;151205.03;10631379;27;20039;-69
2024/03/08 14:32:30;;;;;;;7.00;6.30;;;;;;;10.18;52.81;151233.41;10630244;27;20540;-69
2024/03/08 14:37:32;;;;;;;6.53;5.63;;;;;;;10.13;52.85;151220.50;10630561;27;20036;-69
2024/03/08 14:42:33;;;;;;;5.65;5.00;;;;;;;10.21;52.86;151242.44;10629441;27;20035;-69
2024/03/08 14:47:35;;;;;;;4.85;4.35;;;;;;;10.18;52.62;151233.41;10629311;27;20103;-71
2024/03/08 14:52:39;;;;;;;5.68;4.40;;;;;;;10.09;53.62;151212.78;10611167;27;20087;-71
2024/03/08 14:57:45;;;;;;;5.45;4.03;;;;;;;10.00;52.71;151189.50;10611083;27;20050;-71
2024/03/08 15:02:47;;;;;;;4.97;4.03;;;;;;;9.94;53.88;151174.03;10628480;27;20516;-70
2024/03/08 15:07:49;;;;;;;5.03;4.38;;;;;;;9.95;53.76;151175.31;10610804;27;20047;-70
2024/03/08 15:12:55;;;;;;;4.68;4.22;;;;;;;9.89;53.90;151161.13;10628377;27;20035;-70
2024/03/08 15:17:58;;;;;;;4.72;3.95;;;;;;;10.08;53.94;151210.16;10609563;27;20047;-70
2024/03/08 15:23:00;;;;;;;4.47;3.95;;;;;;;9.94;54.21;151172.75;10628198;27;20514;-70
2024/03/08 15:28:04;;;;;;;4.20;3.45;;;;;;;9.83;55.46;151145.66;10637066;27;20039;-70
2024/03/08 15:33:10;;;;;;;4.35;3.72;;;;;;;9.84;54.76;151148.25;10639936;27;20096;-71
2024/03/08 15:38:13;;;;;;;4.77;4.07;;;;;;;9.76;55.19;151127.59;10665022;27;20043;-71
2024/03/08 15:43:16;;;;;;;5.18;4.18;;;;;;;9.85;55.37;151152.09;10662417;27;20501;-70
2024/03/08 15:48:17;;;;;;;4.80;4.30;;;;;;;9.94;55.28;151172.75;10626724;27;20087;-72
2024/03/08 15:53:19;;;;;;;6.00;4.60;;;;;;;9.74;56.09;151122.41;10626690;27;20047;-70
2024/03/08 15:58:21;;;;;;;6.20;5.35;;;;;;;9.63;56.97;151094.03;10626283;27;20039;-71
2024/03/08 16:03:23;;;;;;;7.35;5.57;;;;;;;9.59;57.45;151086.28;10627414;27;20038;-71
2024/03/08 16:08:25;;;;;;;5.63;4.90;;;;;;;9.45;58.63;151050.16;10625473;27;20054;-70
2024/03/08 16:13:27;;;;;;;5.90;5.30;;;;;;;9.25;59.22;150998.56;10625201;27;20469;-70
2024/03/08 16:18:30;;;;;;;7.28;6.57;;;;;;;9.01;60.73;150939.25;10624455;27;20046;-70
2024/03/08 16:23:32;;;;;;;8.30;7.15;;;;;;;9.23;59.32;150994.69;10623590;27;20073;-70
2024/03/08 16:28:41;;;;;;;7.70;6.97;;;;;;;9.01;60.34;150939.25;10647956;27;20398;-71
2024/03/08 16:33:44;;;;;;;7.63;6.60;;;;;;;8.87;61.50;150903.13;10639840;27;20113;-70
2024/03/08 16:38:48;;;;;;;7.68;6.88;;;;;;;8.59;62.97;150832.25;10624007;27;20592;-70
2024/03/08 16:43:50;;;;;;;7.60;6.72;;;;;;;8.68;62.57;150854.16;10634786;27;20469;-69
2024/03/08 16:48:52;;;;;;;7.82;7.03;;;;;;;8.52;63.07;150814.19;10629603;27;20043;-71
2024/03/08 16:53:54;;;;;;;8.75;7.47;;;;;;;8.33;64.17;150766.44;10625427;27;20418;-70
2024/03/08 16:58:56;;;;;;;8.80;7.90;;;;;;;8.15;65.35;150721.34;10618979;27;20038;-70
2024/03/08 17:03:58;;;;;;;8.95;8.00;;;;;;;8.13;65.11;150714.88;10668316;27;20046;-71
2024/03/08 17:09:02;;;;;;;8.73;7.50;;;;;;;7.87;66.21;150650.44;10666299;27;20042;-70
2024/03/08 17:14:04;;;;;;;9.02;8.13;;;;;;;7.97;65.84;150676.22;10613260;28;20035;-71
2024/03/08 17:19:07;;;;;;;9.40;8.18;;;;;;;7.58;67.51;150578.31;10623669;28;20051;-69
2024/03/08 17:24:11;;;;;;;16.45;12.45;;;;;;;7.68;67.47;150602.78;10623697;28;20088;-70
2024/03/08 17:29:14;;;;;;;10.80;9.70;;;;;;;7.28;69.44;150502.31;10630365;27;20130;-72
2024/03/08 17:34:19;;;;;;;10.13;8.57;;;;;;;7.47;68.26;150548.66;10631617;27;20039;-70
2024/03/08 17:39:26;;;;;;;8.18;7.28;;;;;;;7.17;69.41;150474.00;10632700;27;20510;-70
2024/03/08 17:44:30;;;;;;;7.80;7.07;;;;;;;7.30;69.67;150507.47;10634276;27;20055;-70
2024/03/08 17:49:35;;;;;;;8.15;7.25;;;;;;;7.12;70.75;150461.06;10613802;27;20053;-70
2024/03/08 17:54:37;;;;;;;9.13;6.63;;;;;;;7.14;70.32;150464.97;10631824;27;20064;-72
2024/03/08 17:59:38;;;;;;;6.97;6.28;;;;;;;6.95;71.43;150418.63;10618935;27;20039;-70
2024/03/08 18:04:41;;;;;;;6.85;6.15;;;;;;;7.05;70.75;150444.38;10649345;27;20103;-71
2024/03/08 18:09:43;;;;;;;6.82;4.90;;;;;;;7.11;70.53;150458.50;10663219;27;20103;-71
2024/03/08 18:14:45;;;;;;;5.60;5.07;;;;;;;6.97;70.62;150423.75;10672359;27;20121;-70
2024/03/08 18:19:47;;;;;;;6.40;5.35;;;;;;;6.99;70.86;150428.88;10630630;27;20064;-70
2024/03/08 18:24:52;;;;;;;6.40;5.18;;;;;;;7.00;71.55;150430.22;10614010;27;20506;-70
2024/03/08 18:29:54;;;;;;;5.45;4.85;;;;;;;6.85;71.97;150391.56;10612311;27;20046;-71
2024/03/08 18:34:55;;;;;;;8.85;5.95;;;;;;;6.87;72.37;150396.75;10629729;27;20043;-71
2024/03/08 18:39:58;;;;;;;19.10;15.82;;;;;;;6.82;74.55;150386.44;10627702;27;20031;-70
2024/03/08 18:45:08;;;;;;;21.75;18.60;;;;;;;6.74;76.55;150365.81;10649275;27;20470;-71
2024/03/08 18:50:13;;;;;;;35.92;20.38;;;;;;;6.64;77.77;150338.75;10655831;27;20043;-73
2024/03/08 18:55:20;;;;;;;30.23;21.42;;;;;;;6.53;78.94;150313.03;10630566;27;20078;-70
2024/03/08 19:00:29;;;;;;;34.60;21.98;;;;;;;6.51;79.51;150306.63;10629338;27;20035;-71
2024/03/08 19:05:34;;;;;;;38.50;22.40;;;;;;;6.41;80.04;150282.13;10629272;27;20047;-70
2024/03/08 19:10:37;;;;;;;39.72;22.13;;;;;;;6.21;80.97;150231.97;10630137;27;20035;-71
2024/03/08 19:15:40;;;;;;;34.83;22.38;;;;;;;6.12;81.99;150207.53;10630009;27;20065;-70
2024/03/08 19:20:43;;;;;;;42.85;23.13;;;;;;;5.84;83.21;150137.97;10631769;27;20039;-71
2024/03/08 19:25:45;;;;;;;44.75;25.30;;;;;;;5.79;83.69;150125.13;10630867;27;20114;-70
2024/03/08 19:30:48;;;;;;;49.95;23.83;;;;;;;5.46;85.52;150042.81;10629833;27;20372;-70
2024/03/08 19:35:50;;;;;;;43.17;23.50;;;;;;;5.61;86.05;150080.09;10630667;27;20192;-70
2024/03/08 19:40:53;;;;;;;26.27;19.65;;;;;;;5.63;84.70;150084.00;10610412;27;20048;-70
2024/03/08 19:45:56;;;;;;;29.27;16.20;;;;;;;5.70;84.29;150101.97;10609972;27;20099;-70
2024/03/08 19:51:04;;;;;;;17.33;12.02;;;;;;;5.82;82.08;150132.84;10627444;27;20122;-70
2024/03/08 19:56:06;;;;;;;12.20;10.88;;;;;;;5.90;80.99;150153.44;10627470;27;20601;-70
2024/03/08 20:01:09;;;;;;;11.05;8.18;;;;;;;5.96;80.56;150168.91;10627797;27;20050;-71
2024/03/08 20:06:11;;;;;;;9.88;8.88;;;;;;;5.83;80.81;150136.69;10627691;27;20427;-70
2024/03/08 20:11:14;;;;;;;8.02;6.97;;;;;;;5.66;80.58;150092.94;10626981;27;20098;-70
2024/03/08 20:16:17;;;;;;;8.18;6.65;;;;;;;5.74;78.45;150112.25;10627199;27;20039;-70
2024/03/08 20:21:19;;;;;;;9.57;6.75;;;;;;;5.59;78.58;150074.97;10626968;27;20122;-71
2024/03/08 20:26:22;;;;;;;8.88;7.13;;;;;;;5.62;77.42;150082.66;10627927;27;20047;-70
2024/03/08 20:31:24;;;;;;;6.78;5.85;;;;;;;5.65;77.04;150089.13;10608423;27;20043;-70
2024/03/08 20:36:26;;;;;;;7.00;5.80;;;;;;;5.67;76.42;150094.28;10627984;27;20445;-73
2024/03/08 20:41:28;;;;;;;7.75;6.72;;;;;;;5.38;77.45;150022.22;10626635;27;20054;-71
2024/03/08 20:46:30;;;;;;;10.30;6.68;;;;;;;5.31;77.63;150005.53;10627026;27;20431;-71
2024/03/08 20:51:32;;;;;;;8.63;6.78;;;;;;;5.17;77.99;149968.22;10625897;27;20043;-71
2024/03/08 20:56:33;;;;;;;7.65;6.82;;;;;;;5.26;77.95;149991.38;10626213;27;20046;-71
2024/03/08 21:01:36;;;;;;;7.15;6.47;;;;;;;5.26;77.12;149992.63;10627626;27;20036;-71
2024/03/08 21:06:43;;;;;;;10.45;7.10;;;;;;;5.07;78.63;149945.09;10634392;27;20048;-72
2024/03/08 21:11:45;;;;;;;9.43;7.20;;;;;;;5.17;78.27;149969.50;10634285;27;20099;-70
2024/03/08 21:16:47;;;;;;;8.35;7.45;;;;;;;4.89;79.60;149897.53;10597448;27;20047;-74
2024/03/08 21:21:49;;;;;;;11.95;8.20;;;;;;;4.95;79.80;149912.94;10632435;27;20466;-73
2024/03/08 21:26:55;;;;;;;13.13;8.13;;;;;;;4.73;80.07;149857.66;10632527;27;20050;-73
2024/03/08 21:31:56;;;;;;;8.88;7.43;;;;;;;4.80;79.84;149875.69;10632460;27;20570;-73
2024/03/08 21:36:58;;;;;;;11.65;7.80;;;;;;;5.09;78.69;149948.97;10632623;27;20039;-73
2024/03/08 21:42:03;;;;;;;9.35;7.85;;;;;;;4.96;78.90;149916.84;10632543;27;20039;-73
2024/03/08 21:47:05;;;;;;;9.63;7.65;;;;;;;4.78;79.81;149871.84;10631976;27;20042;-73
2024/03/08 21:52:07;;;;;;;10.10;8.27;;;;;;;4.76;79.13;149866.66;10613564;27;20046;-73
2024/03/08 21:57:10;;;;;;;9.05;8.15;;;;;;;4.64;80.22;149834.53;10631335;27;20046;-73
2024/03/08 22:02:12;;;;;;;10.57;8.40;;;;;;;4.71;79.58;149853.81;10632095;27;20043;-73
2024/03/08 22:07:14;;;;;;;11.30;8.40;;;;;;;4.61;79.70;149828.13;10632439;27;20039;-74
2024/03/08 22:12:15;;;;;;;12.43;7.38;;;;;;;4.73;79.13;149857.66;10631961;27;20407;-73
2024/03/08 22:17:17;;;;;;;12.18;9.02;;;;;;;4.79;78.37;149873.13;10630836;27;20039;-73
2024/03/08 22:22:24;;;;;;;10.25;7.95;;;;;;;4.93;77.42;149909.09;10629781;27;20035;-73
2024/03/08 22:27:26;;;;;;;10.93;9.13;;;;;;;4.86;77.60;149891.09;10630014;27;20043;-74
2024/03/08 22:32:28;;;;;;;10.80;8.25;;;;;;;4.86;77.50;149891.09;10629859;27;20130;-73
2024/03/08 22:37:30;;;;;;;16.67;10.55;;;;;;;4.81;77.70;149878.25;10631885;27;20035;-74
2024/03/08 22:42:32;;;;;;;8.43;7.13;;;;;;;4.89;77.50;149898.81;10630178;27;20043;-73
2024/03/08 22:47:34;;;;;;;12.63;8.30;;;;;;;4.91;77.18;149902.66;10630174;27;20081;-72
2024/03/08 22:52:36;;;;;;;11.65;8.88;;;;;;;4.87;77.40;149893.69;10629711;27;20077;-73
2024/03/08 22:57:39;;;;;;;11.10;8.15;;;;;;;4.75;78.01;149864.13;10629591;27;20047;-72
2024/03/08 23:02:42;;;;;;;11.70;8.90;;;;;;;4.43;79.72;149781.88;10629881;27;20125;-74
2024/03/08 23:07:44;;;;;;;10.23;8.98;;;;;;;4.48;79.27;149794.72;10629009;27;20047;-72